sensor_id;sensor_type;location;lat;lon;timestamp;pressure;altitude;pressure_sealevel;temperature;humidity
9059;BME280;4564;42.034;25.834;2023-03-08T00:00:35;99501.94;;;7.69;97.97
9059;BME280;4564;42.034;25.834;2023-03-08T00:03:03;99495.34;;;7.72;98.73
9059;BME280;4564;42.034;25.834;2023-03-08T00:05:30;99498.78;;;7.66;97.69
9059;BME280;4564;42.034;25.834;2023-03-08T00:07:57;99499.72;;;7.58;98.72
9059;BME280;4564;42.034;25.834;2023-03-08T00:10:23;99495.53;;;7.55;99.10
9059;BME280;4564;42.034;25.834;2023-03-08T00:12:50;99493.38;;;7.51;99.54
9059;BME280;4564;42.034;25.834;2023-03-08T00:15:17;99499.56;;;7.45;100.00
9059;BME280;4564;42.034;25.834;2023-03-08T00:17:43;99493.66;;;7.41;99.83
9059;BME280;4564;42.034;25.834;2023-03-08T00:20:12;99495.81;;;7.46;100.00
9059;BME280;4564;42.034;25.834;2023-03-08T00:22:39;99502.88;;;7.47;100.00
9059;BME280;4564;42.034;25.834;2023-03-08T00:25:06;99495.06;;;7.37;99.97
9059;BME280;4564;42.034;25.834;2023-03-08T00:27:34;99496.09;;;7.36;100.00
9059;BME280;4564;42.034;25.834;2023-03-08T00:30:01;99492.66;;;7.28;99.93
9059;BME280;4564;42.034;25.834;2023-03-08T00:32:28;99494.63;;;7.34;100.00
9059;BME280;4564;42.034;25.834;2023-03-08T00:34:55;99500.09;;;7.26;100.00
9059;BME280;4564;42.034;25.834;2023-03-08T00:37:23;99498.06;;;7.28;100.00
9059;BME280;4564;42.034;25.834;2023-03-08T00:39:50;99490.13;;;7.26;100.00
9059;BME280;4564;42.034;25.834;2023-03-08T00:42:17;99488.28;;;7.27;100.00
9059;BME280;4564;42.034;25.834;2023-03-08T00:44:44;99484.81;;;7.18;100.00
9059;BME280;4564;42.034;25.834;2023-03-08T00:47:10;99482.03;;;7.11;100.00
9059;BME280;4564;42.034;25.834;2023-03-08T00:49:37;99468.63;;;7.03;100.00
9059;BME280;4564;42.034;25.834;2023-03-08T00:52:04;99470.31;;;7.04;100.00
9059;BME280;4564;42.034;25.834;2023-03-08T00:54:32;99466.09;;;7.02;100.00
9059;BME280;4564;42.034;25.834;2023-03-08T00:56:59;99469.75;;;7.09;100.00
9059;BME280;4564;42.034;25.834;2023-03-08T00:59:25;99469.94;;;7.07;100.00
9059;BME280;4564;42.034;25.834;2023-03-08T01:01:52;99465.94;;;7.03;100.00
9059;BME280;4564;42.034;25.834;2023-03-08T01:04:18;99460.91;;;7.00;100.00
9059;BME280;4564;42.034;25.834;2023-03-08T01:06:45;99472.28;;;6.96;100.00
9059;BME280;4564;42.034;25.834;2023-03-08T01:09:12;99466.66;;;6.97;100.00
9059;BME280;4564;42.034;25.834;2023-03-08T01:11:40;99472.06;;;6.97;100.00
9059;BME280;4564;42.034;25.834;2023-03-08T01:14:07;99477.09;;;7.00;100.00
9059;BME280;4564;42.034;25.834;2023-03-08T01:16:34;99476.81;;;7.10;100.00
9059;BME280;4564;42.034;25.834;2023-03-08T01:19:00;99469.56;;;7.10;100.00
9059;BME280;4564;42.034;25.834;2023-03-08T01:21:28;99468.63;;;7.03;100.00
9059;BME280;4564;42.034;25.834;2023-03-08T01:23:55;99465.47;;;7.00;100.00
9059;BME280;4564;42.034;25.834;2023-03-08T01:26:22;99463.97;;;6.97;100.00
9059;BME280;4564;42.034;25.834;2023-03-08T01:28:50;99465.19;;;6.95;100.00
9059;BME280;4564;42.034;25.834;2023-03-08T01:31:18;99468.06;;;6.93;100.00
9059;BME280;4564;42.034;25.834;2023-03-08T01:33:45;99468.06;;;6.93;100.00
9059;BME280;4564;42.034;25.834;2023-03-08T01:36:13;99469.75;;;6.94;100.00
9059;BME280;4564;42.034;25.834;2023-03-08T01:38:40;99471.78;;;6.92;100.00
9059;BME280;4564;42.034;25.834;2023-03-08T01:41:08;99465.09;;;6.88;100.00
9059;BME280;4564;42.034;25.834;2023-03-08T01:43:38;99468.81;;;6.87;100.00
9059;BME280;4564;42.034;25.834;2023-03-08T01:46:09;99471.22;;;6.82;100.00
9059;BME280;4564;42.034;25.834;2023-03-08T01:48:37;99462.66;;;6.93;100.00
9059;BME280;4564;42.034;25.834;2023-03-08T01:51:06;99465.59;;;7.06;100.00
9059;BME280;4564;42.034;25.834;2023-03-08T01:53:34;99468.34;;;7.13;99.74
9059;BME280;4564;42.034;25.834;2023-03-08T01:56:02;99467.72;;;7.11;99.64
9059;BME280;4564;42.034;25.834;2023-03-08T01:58:29;99477.00;;;7.08;98.95
9059;BME280;4564;42.034;25.834;2023-03-08T02:00:56;99471.72;;;7.00;100.00
9059;BME280;4564;42.034;25.834;2023-03-08T02:03:24;99465.38;;;6.93;100.00
9059;BME280;4564;42.034;25.834;2023-03-08T02:05:51;99469.47;;;6.89;100.00
9059;BME280;4564;42.034;25.834;2023-03-08T02:08:17;99473.91;;;6.82;100.00
9059;BME280;4564;42.034;25.834;2023-03-08T02:10:44;99457.72;;;6.82;100.00
9059;BME280;4564;42.034;25.834;2023-03-08T02:13:10;99465.81;;;6.82;100.00
9059;BME280;4564;42.034;25.834;2023-03-08T02:15:37;99467.78;;;6.73;100.00
9059;BME280;4564;42.034;25.834;2023-03-08T02:18:04;99472.31;;;6.73;100.00
9059;BME280;4564;42.034;25.834;2023-03-08T02:20:32;99475.56;;;6.68;100.00
9059;BME280;4564;42.034;25.834;2023-03-08T02:23:08;99479.63;;;6.64;100.00
9059;BME280;4564;42.034;25.834;2023-03-08T02:25:36;99483.72;;;6.60;100.00
9059;BME280;4564;42.034;25.834;2023-03-08T02:28:03;99482.28;;;6.50;100.00
9059;BME280;4564;42.034;25.834;2023-03-08T02:30:31;99486.00;;;6.49;100.00
9059;BME280;4564;42.034;25.834;2023-03-08T02:32:58;99489.53;;;6.26;100.00
9059;BME280;4564;42.034;25.834;2023-03-08T02:35:24;99490.91;;;6.22;99.66
9059;BME280;4564;42.034;25.834;2023-03-08T02:37:51;99501.47;;;6.09;99.95
9059;BME280;4564;42.034;25.834;2023-03-08T02:40:19;99505.88;;;6.02;99.76
9059;BME280;4564;42.034;25.834;2023-03-08T02:42:46;99506.94;;;5.93;100.00
9059;BME280;4564;42.034;25.834;2023-03-08T02:45:12;99498.66;;;5.95;100.00
9059;BME280;4564;42.034;25.834;2023-03-08T02:47:39;99502.03;;;5.97;100.00
9059;BME280;4564;42.034;25.834;2023-03-08T02:50:06;99501.88;;;5.98;100.00
9059;BME280;4564;42.034;25.834;2023-03-08T02:52:33;99502.72;;;5.99;100.00
9059;BME280;4564;42.034;25.834;2023-03-08T02:55:00;99504.72;;;5.97;100.00
9059;BME280;4564;42.034;25.834;2023-03-08T02:57:28;99508.25;;;5.97;100.00
9059;BME280;4564;42.034;25.834;2023-03-08T02:59:54;99513.34;;;5.92;100.00
9059;BME280;4564;42.034;25.834;2023-03-08T03:02:21;99508.66;;;5.78;100.00
9059;BME280;4564;42.034;25.834;2023-03-08T03:04:47;99504.97;;;5.79;100.00
9059;BME280;4564;42.034;25.834;2023-03-08T03:07:14;99503.63;;;5.75;100.00
9059;BME280;4564;42.034;25.834;2023-03-08T03:09:40;99511.19;;;5.79;100.00
9059;BME280;4564;42.034;25.834;2023-03-08T03:12:07;99509.34;;;5.80;100.00
9059;BME280;4564;42.034;25.834;2023-03-08T03:14:35;99515.41;;;5.74;100.00
9059;BME280;4564;42.034;25.834;2023-03-08T03:17:02;99518.47;;;5.71;99.89
9059;BME280;4564;42.034;25.834;2023-03-08T03:19:28;99512.06;;;5.72;100.00
9059;BME280;4564;42.034;25.834;2023-03-08T03:21:55;99513.56;;;5.74;100.00
9059;BME280;4564;42.034;25.834;2023-03-08T03:24:21;99512.03;;;5.80;100.00
9059;BME280;4564;42.034;25.834;2023-03-08T03:26:48;99508.03;;;5.68;100.00
9059;BME280;4564;42.034;25.834;2023-03-08T03:29:15;99511.16;;;5.40;99.31
9059;BME280;4564;42.034;25.834;2023-03-08T03:31:43;99510.91;;;5.27;99.37
9059;BME280;4564;42.034;25.834;2023-03-08T03:34:10;99508.53;;;5.24;99.46
9059;BME280;4564;42.034;25.834;2023-03-08T03:36:36;99512.91;;;5.25;99.90
9059;BME280;4564;42.034;25.834;2023-03-08T03:39:03;99508.53;;;5.32;99.91
9059;BME280;4564;42.034;25.834;2023-03-08T03:41:30;99520.94;;;5.41;99.61
9059;BME280;4564;42.034;25.834;2023-03-08T03:43:57;99511.91;;;5.34;100.00
9059;BME280;4564;42.034;25.834;2023-03-08T03:46:23;99513.94;;;5.16;99.53
9059;BME280;4564;42.034;25.834;2023-03-08T03:48:51;99520.38;;;5.07;99.31
9059;BME280;4564;42.034;25.834;2023-03-08T03:51:18;99526.75;;;4.98;99.86
9059;BME280;4564;42.034;25.834;2023-03-08T03:53:45;99523.41;;;4.96;100.00
9059;BME280;4564;42.034;25.834;2023-03-08T03:56:13;99518.72;;;4.90;100.00
9059;BME280;4564;42.034;25.834;2023-03-08T03:58:40;99523.75;;;4.85;100.00
9059;BME280;4564;42.034;25.834;2023-03-08T04:01:07;99536.34;;;4.84;100.00
9059;BME280;4564;42.034;25.834;2023-03-08T04:03:34;99532.66;;;4.77;100.00
9059;BME280;4564;42.034;25.834;2023-03-08T04:06:06;99536.88;;;4.72;100.00
9059;BME280;4564;42.034;25.834;2023-03-08T04:08:32;99541.59;;;4.70;100.00
9059;BME280;4564;42.034;25.834;2023-03-08T04:10:59;99547.28;;;4.75;100.00
9059;BME280;4564;42.034;25.834;2023-03-08T04:13:25;99537.19;;;4.77;100.00
9059;BME280;4564;42.034;25.834;2023-03-08T04:15:52;99537.34;;;4.75;100.00
9059;BME280;4564;42.034;25.834;2023-03-08T04:18:18;99537.22;;;4.69;100.00
9059;BME280;4564;42.034;25.834;2023-03-08T04:20:45;99539.03;;;4.60;100.00
9059;BME280;4564;42.034;25.834;2023-03-08T04:23:13;99548.28;;;4.65;100.00
9059;BME280;4564;42.034;25.834;2023-03-08T04:25:40;99547.28;;;4.67;100.00
9059;BME280;4564;42.034;25.834;2023-03-08T04:28:06;99549.44;;;4.71;100.00
9059;BME280;4564;42.034;25.834;2023-03-08T04:30:33;99554.66;;;4.64;100.00
9059;BME280;4564;42.034;25.834;2023-03-08T04:32:59;99551.97;;;4.48;100.00
9059;BME280;4564;42.034;25.834;2023-03-08T04:35:26;99554.00;;;4.46;100.00
9059;BME280;4564;42.034;25.834;2023-03-08T04:37:53;99553.34;;;4.52;100.00
9059;BME280;4564;42.034;25.834;2023-03-08T04:40:20;99563.41;;;4.58;100.00
9059;BME280;4564;42.034;25.834;2023-03-08T04:42:47;99564.41;;;4.57;100.00
9059;BME280;4564;42.034;25.834;2023-03-08T04:45:14;99571.13;;;4.53;100.00
9059;BME280;4564;42.034;25.834;2023-03-08T04:47:40;99562.22;;;4.45;100.00
9059;BME280;4564;42.034;25.834;2023-03-08T04:50:08;99571.13;;;4.37;100.00
9059;BME280;4564;42.034;25.834;2023-03-08T04:52:35;99569.09;;;4.39;100.00
9059;BME280;4564;42.034;25.834;2023-03-08T04:55:02;99580.16;;;4.36;100.00
9059;BME280;4564;42.034;25.834;2023-03-08T04:57:30;99584.97;;;4.16;100.00
9059;BME280;4564;42.034;25.834;2023-03-08T04:59:56;99583.47;;;4.22;100.00
9059;BME280;4564;42.034;25.834;2023-03-08T05:02:23;99588.84;;;4.22;100.00
9059;BME280;4564;42.034;25.834;2023-03-08T05:04:49;99596.59;;;4.33;100.00
9059;BME280;4564;42.034;25.834;2023-03-08T05:07:16;99600.97;;;4.26;100.00
9059;BME280;4564;42.034;25.834;2023-03-08T05:09:43;99594.72;;;4.17;99.85
9059;BME280;4564;42.034;25.834;2023-03-08T05:12:09;99603.31;;;4.21;99.41
9059;BME280;4564;42.034;25.834;2023-03-08T05:14:37;99599.25;;;4.17;99.99
9059;BME280;4564;42.034;25.834;2023-03-08T05:17:04;99609.34;;;4.23;100.00
9059;BME280;4564;42.034;25.834;2023-03-08T05:19:30;99614.25;;;4.36;100.00
9059;BME280;4564;42.034;25.834;2023-03-08T05:21:57;99612.75;;;4.49;100.00
9059;BME280;4564;42.034;25.834;2023-03-08T05:24:24;99610.94;;;4.58;100.00
9059;BME280;4564;42.034;25.834;2023-03-08T05:26:51;99615.28;;;4.67;100.00
9059;BME280;4564;42.034;25.834;2023-03-08T05:29:18;99624.19;;;4.92;100.00
9059;BME280;4564;42.034;25.834;2023-03-08T05:31:45;99627.81;;;5.64;100.00
9059;BME280;4564;42.034;25.834;2023-03-08T05:34:14;99625.75;;;6.29;98.36
9059;BME280;4564;42.034;25.834;2023-03-08T05:36:41;99640.00;;;7.14;95.89
9059;BME280;4564;42.034;25.834;2023-03-08T05:39:08;99637.06;;;7.76;89.65
9059;BME280;4564;42.034;25.834;2023-03-08T05:41:35;99635.25;;;8.27;86.88
9059;BME280;4564;42.034;25.834;2023-03-08T05:44:02;99635.31;;;8.48;83.52
9059;BME280;4564;42.034;25.834;2023-03-08T05:46:28;99641.41;;;8.50;84.34
9059;BME280;4564;42.034;25.834;2023-03-08T05:48:56;99638.59;;;8.58;83.50
9059;BME280;4564;42.034;25.834;2023-03-08T05:51:23;99637.31;;;8.75;83.46
9059;BME280;4564;42.034;25.834;2023-03-08T05:53:49;99628.06;;;9.06;83.70
9059;BME280;4564;42.034;25.834;2023-03-08T05:56:17;99639.22;;;9.24;82.86
9059;BME280;4564;42.034;25.834;2023-03-08T05:58:44;99641.09;;;9.23;82.79
9059;BME280;4564;42.034;25.834;2023-03-08T06:01:12;99640.94;;;9.53;82.70
9059;BME280;4564;42.034;25.834;2023-03-08T06:03:40;99651.41;;;9.90;79.43
9059;BME280;4564;42.034;25.834;2023-03-08T06:06:08;99643.13;;;10.33;77.12
9059;BME280;4564;42.034;25.834;2023-03-08T06:08:35;99644.06;;;10.60;76.90
9059;BME280;4564;42.034;25.834;2023-03-08T06:11:01;99653.97;;;10.87;75.87
9059;BME280;4564;42.034;25.834;2023-03-08T06:13:28;99646.75;;;11.93;73.83
9059;BME280;4564;42.034;25.834;2023-03-08T06:15:54;99649.59;;;13.13;70.33
9059;BME280;4564;42.034;25.834;2023-03-08T06:18:22;99654.09;;;14.43;65.60
9059;BME280;4564;42.034;25.834;2023-03-08T06:20:58;99655.88;;;15.16;62.72
9059;BME280;4564;42.034;25.834;2023-03-08T06:23:27;99658.56;;;15.45;60.22
9059;BME280;4564;42.034;25.834;2023-03-08T06:25:54;99667.34;;;16.12;59.67
9059;BME280;4564;42.034;25.834;2023-03-08T06:28:21;99673.47;;;16.77;57.50
9059;BME280;4564;42.034;25.834;2023-03-08T06:30:48;99673.56;;;17.56;55.22
9059;BME280;4564;42.034;25.834;2023-03-08T06:33:15;99675.16;;;17.52;54.70
9059;BME280;4564;42.034;25.834;2023-03-08T06:35:42;99680.88;;;17.95;53.90
9059;BME280;4564;42.034;25.834;2023-03-08T06:38:08;99674.50;;;18.28;52.42
9059;BME280;4564;42.034;25.834;2023-03-08T06:40:36;99678.22;;;18.39;52.04
9059;BME280;4564;42.034;25.834;2023-03-08T06:43:03;99683.59;;;18.67;51.97
9059;BME280;4564;42.034;25.834;2023-03-08T06:45:30;99689.28;;;19.04;51.21
9059;BME280;4564;42.034;25.834;2023-03-08T06:47:58;99691.50;;;19.34;50.68
9059;BME280;4564;42.034;25.834;2023-03-08T06:50:24;99696.84;;;19.19;49.99
9059;BME280;4564;42.034;25.834;2023-03-08T06:52:51;99686.59;;;18.88;51.39
9059;BME280;4564;42.034;25.834;2023-03-08T06:55:17;99693.47;;;19.12;50.87
9059;BME280;4564;42.034;25.834;2023-03-08T06:57:45;99692.03;;;19.31;50.66
9059;BME280;4564;42.034;25.834;2023-03-08T07:00:13;99694.06;;;20.31;47.76
9059;BME280;4564;42.034;25.834;2023-03-08T07:02:39;99700.06;;;20.23;46.16
9059;BME280;4564;42.034;25.834;2023-03-08T07:05:06;99701.66;;;20.19;47.40
9059;BME280;4564;42.034;25.834;2023-03-08T07:07:33;99700.19;;;20.06;47.70
9059;BME280;4564;42.034;25.834;2023-03-08T07:10:00;99701.03;;;20.44;47.70
9059;BME280;4564;42.034;25.834;2023-03-08T07:12:27;99700.00;;;20.55;47.79
9059;BME280;4564;42.034;25.834;2023-03-08T07:14:56;99697.75;;;21.04;45.21
9059;BME280;4564;42.034;25.834;2023-03-08T07:17:23;99700.03;;;21.22;44.30
9059;BME280;4564;42.034;25.834;2023-03-08T07:19:50;99701.63;;;21.13;43.99
9059;BME280;4564;42.034;25.834;2023-03-08T07:22:16;99696.53;;;20.80;45.83
9059;BME280;4564;42.034;25.834;2023-03-08T07:24:45;99691.09;;;21.00;45.22
9059;BME280;4564;42.034;25.834;2023-03-08T07:27:12;99696.28;;;21.54;43.04
9059;BME280;4564;42.034;25.834;2023-03-08T07:29:38;99699.53;;;21.30;44.60
9059;BME280;4564;42.034;25.834;2023-03-08T07:32:06;99698.56;;;21.00;46.10
9059;BME280;4564;42.034;25.834;2023-03-08T07:34:33;99709.56;;;20.94;45.53
9059;BME280;4564;42.034;25.834;2023-03-08T07:37:00;99715.59;;;21.59;43.78
9059;BME280;4564;42.034;25.834;2023-03-08T07:39:26;99724.44;;;21.76;43.35
9059;BME280;4564;42.034;25.834;2023-03-08T07:41:53;99727.28;;;21.96;43.10
9059;BME280;4564;42.034;25.834;2023-03-08T07:44:19;99728.34;;;22.31;41.61
9059;BME280;4564;42.034;25.834;2023-03-08T07:46:46;99725.63;;;22.05;42.68
9059;BME280;4564;42.034;25.834;2023-03-08T07:49:14;99719.16;;;21.59;42.84
9059;BME280;4564;42.034;25.834;2023-03-08T07:51:40;99724.97;;;21.48;43.41
9059;BME280;4564;42.034;25.834;2023-03-08T07:54:09;99726.03;;;21.37;44.11
9059;BME280;4564;42.034;25.834;2023-03-08T07:56:36;99728.81;;;21.42;44.29
9059;BME280;4564;42.034;25.834;2023-03-08T07:59:03;99729.88;;;21.30;43.91
9059;BME280;4564;42.034;25.834;2023-03-08T08:01:30;99730.56;;;22.08;42.55
9059;BME280;4564;42.034;25.834;2023-03-08T08:03:57;99722.81;;;21.80;42.63
9059;BME280;4564;42.034;25.834;2023-03-08T08:06:25;99722.97;;;21.28;43.76
9059;BME280;4564;42.034;25.834;2023-03-08T08:08:53;99716.59;;;21.17;45.52
9059;BME280;4564;42.034;25.834;2023-03-08T08:11:20;99713.56;;;21.24;43.88
9059;BME280;4564;42.034;25.834;2023-03-08T08:13:46;99720.13;;;20.56;45.11
9059;BME280;4564;42.034;25.834;2023-03-08T08:16:14;99716.06;;;20.68;45.84
9059;BME280;4564;42.034;25.834;2023-03-08T08:18:41;99718.63;;;20.85;44.41
9059;BME280;4564;42.034;25.834;2023-03-08T08:21:08;99724.66;;;20.72;45.61
9059;BME280;4564;42.034;25.834;2023-03-08T08:23:37;99714.97;;;19.95;48.39
9059;BME280;4564;42.034;25.834;2023-03-08T08:26:04;99718.47;;;19.32;50.82
9059;BME280;4564;42.034;25.834;2023-03-08T08:28:31;99712.59;;;19.02;51.01
9059;BME280;4564;42.034;25.834;2023-03-08T08:30:58;99712.78;;;18.35;52.92
9059;BME280;4564;42.034;25.834;2023-03-08T08:33:26;99721.13;;;17.90;54.46
9059;BME280;4564;42.034;25.834;2023-03-08T08:35:53;99712.22;;;17.99;53.29
9059;BME280;4564;42.034;25.834;2023-03-08T08:38:19;99708.63;;;17.82;54.21
9059;BME280;4564;42.034;25.834;2023-03-08T08:40:47;99714.13;;;17.82;54.95
9059;BME280;4564;42.034;25.834;2023-03-08T08:43:14;99707.47;;;17.78;55.15
9059;BME280;4564;42.034;25.834;2023-03-08T08:45:43;99711.81;;;18.08;55.25
9059;BME280;4564;42.034;25.834;2023-03-08T08:48:10;99702.81;;;18.29;54.13
9059;BME280;4564;42.034;25.834;2023-03-08T08:50:37;99700.31;;;18.27;53.22
9059;BME280;4564;42.034;25.834;2023-03-08T08:53:04;99702.66;;;17.85;52.22
9059;BME280;4564;42.034;25.834;2023-03-08T08:55:30;99696.34;;;17.85;53.64
9059;BME280;4564;42.034;25.834;2023-03-08T08:57:58;99692.84;;;17.89;53.35
9059;BME280;4564;42.034;25.834;2023-03-08T09:00:25;99691.75;;;17.90;53.52
9059;BME280;4564;42.034;25.834;2023-03-08T09:02:52;99687.81;;;17.53;52.51
9059;BME280;4564;42.034;25.834;2023-03-08T09:05:18;99682.84;;;17.67;51.70
9059;BME280;4564;42.034;25.834;2023-03-08T09:07:45;99678.44;;;17.66;51.66
9059;BME280;4564;42.034;25.834;2023-03-08T09:10:11;99678.19;;;17.84;50.75
9059;BME280;4564;42.034;25.834;2023-03-08T09:12:38;99682.94;;;17.88;52.53
9059;BME280;4564;42.034;25.834;2023-03-08T09:15:07;99671.25;;;18.15;51.78
9059;BME280;4564;42.034;25.834;2023-03-08T09:17:34;99680.03;;;17.95;51.02
9059;BME280;4564;42.034;25.834;2023-03-08T09:20:01;99675.44;;;18.00;49.85
9059;BME280;4564;42.034;25.834;2023-03-08T09:22:30;99668.59;;;18.03;50.94
9059;BME280;4564;42.034;25.834;2023-03-08T09:24:56;99679.44;;;17.93;49.68
9059;BME280;4564;42.034;25.834;2023-03-08T09:27:23;99675.97;;;17.97;49.78
9059;BME280;4564;42.034;25.834;2023-03-08T09:29:50;99685.19;;;17.91;48.19
9059;BME280;4564;42.034;25.834;2023-03-08T09:32:18;99678.94;;;17.96;48.27
9059;BME280;4564;42.034;25.834;2023-03-08T09:34:54;99672.69;;;18.00;48.20
9059;BME280;4564;42.034;25.834;2023-03-08T09:37:20;99682.53;;;17.96;47.40
9059;BME280;4564;42.034;25.834;2023-03-08T09:39:49;99669.03;;;18.12;49.20
9059;BME280;4564;42.034;25.834;2023-03-08T09:42:17;99683.81;;;18.27;48.15
9059;BME280;4564;42.034;25.834;2023-03-08T09:44:50;99678.63;;;18.31;46.91
9059;BME280;4564;42.034;25.834;2023-03-08T09:47:27;99676.19;;;18.13;45.38
9059;BME280;4564;42.034;25.834;2023-03-08T09:50:00;99675.84;;;18.09;46.18
9059;BME280;4564;42.034;25.834;2023-03-08T09:52:30;99679.94;;;17.90;45.42
9059;BME280;4564;42.034;25.834;2023-03-08T09:54:58;99670.88;;;17.89;46.54
9059;BME280;4564;42.034;25.834;2023-03-08T09:57:27;99660.97;;;18.05;47.01
9059;BME280;4564;42.034;25.834;2023-03-08T09:59:54;99652.31;;;17.96;44.97
9059;BME280;4564;42.034;25.834;2023-03-08T10:02:24;99650.41;;;18.14;45.79
9059;BME280;4564;42.034;25.834;2023-03-08T10:04:57;99650.47;;;18.19;46.07
9059;BME280;4564;42.034;25.834;2023-03-08T10:07:32;99654.97;;;18.08;46.58
9059;BME280;4564;42.034;25.834;2023-03-08T10:10:02;99659.06;;;18.06;48.41
9059;BME280;4564;42.034;25.834;2023-03-08T10:12:32;99648.75;;;17.96;48.75
9059;BME280;4564;42.034;25.834;2023-03-08T10:15:03;99647.16;;;18.00;49.10
9059;BME280;4564;42.034;25.834;2023-03-08T10:17:34;99648.06;;;18.06;47.40
9059;BME280;4564;42.034;25.834;2023-03-08T10:20:04;99647.53;;;18.09;46.72
9059;BME280;4564;42.034;25.834;2023-03-08T10:22:34;99645.91;;;18.08;47.67
9059;BME280;4564;42.034;25.834;2023-03-08T10:25:13;99642.56;;;18.06;46.10
9059;BME280;4564;42.034;25.834;2023-03-08T10:27:44;99637.25;;;17.82;44.79
9059;BME280;4564;42.034;25.834;2023-03-08T10:30:14;99644.78;;;17.70;45.46
9059;BME280;4564;42.034;25.834;2023-03-08T10:32:44;99635.19;;;17.89;45.62
9059;BME280;4564;42.034;25.834;2023-03-08T10:35:11;99627.63;;;17.96;45.61
9059;BME280;4564;42.034;25.834;2023-03-08T10:37:39;99633.25;;;18.07;45.91
9059;BME280;4564;42.034;25.834;2023-03-08T10:40:07;99624.50;;;18.10;44.85
9059;BME280;4564;42.034;25.834;2023-03-08T10:42:34;99630.00;;;18.10;43.99
9059;BME280;4564;42.034;25.834;2023-03-08T10:45:03;99618.09;;;18.04;44.15
9059;BME280;4564;42.034;25.834;2023-03-08T10:47:30;99617.94;;;18.11;44.83
9059;BME280;4564;42.034;25.834;2023-03-08T10:50:04;99615.13;;;17.89;43.06
9059;BME280;4564;42.034;25.834;2023-03-08T10:52:31;99615.94;;;18.06;42.75
9059;BME280;4564;42.034;25.834;2023-03-08T10:55:03;99604.72;;;18.08;42.31
9059;BME280;4564;42.034;25.834;2023-03-08T10:57:30;99607.00;;;18.16;42.74
9059;BME280;4564;42.034;25.834;2023-03-08T10:59:59;99597.25;;;18.25;44.66
9059;BME280;4564;42.034;25.834;2023-03-08T11:02:29;99600.34;;;18.50;43.36
9059;BME280;4564;42.034;25.834;2023-03-08T11:04:57;99599.81;;;18.53;42.22
9059;BME280;4564;42.034;25.834;2023-03-08T11:07:25;99595.47;;;18.57;40.60
9059;BME280;4564;42.034;25.834;2023-03-08T11:10:03;99590.38;;;18.66;41.18
9059;BME280;4564;42.034;25.834;2023-03-08T11:12:30;99591.03;;;18.73;41.05
9059;BME280;4564;42.034;25.834;2023-03-08T11:14:57;99585.78;;;18.71;39.59
9059;BME280;4564;42.034;25.834;2023-03-08T11:17:25;99576.16;;;18.52;39.24
9059;BME280;4564;42.034;25.834;2023-03-08T11:19:55;99573.41;;;18.74;40.12
9059;BME280;4564;42.034;25.834;2023-03-08T11:22:32;99574.41;;;18.90;40.87
9059;BME280;4564;42.034;25.834;2023-03-08T11:25:06;99570.56;;;19.17;39.86
9059;BME280;4564;42.034;25.834;2023-03-08T11:27:40;99565.59;;;19.14;39.53
9059;BME280;4564;42.034;25.834;2023-03-08T11:30:14;99558.56;;;19.28;39.81
9059;BME280;4564;42.034;25.834;2023-03-08T11:32:47;99554.84;;;19.13;39.60
9059;BME280;4564;42.034;25.834;2023-03-08T11:35:21;99553.19;;;19.12;40.34
9059;BME280;4564;42.034;25.834;2023-03-08T11:37:52;99552.44;;;19.48;40.95
9059;BME280;4564;42.034;25.834;2023-03-08T11:40:23;99550.38;;;19.70;40.95
9059;BME280;4564;42.034;25.834;2023-03-08T11:42:53;99543.66;;;19.51;38.15
9059;BME280;4564;42.034;25.834;2023-03-08T11:45:22;99553.38;;;19.32;38.25
9059;BME280;4564;42.034;25.834;2023-03-08T11:50:36;99538.31;;;19.77;37.80
9059;BME280;4564;42.034;25.834;2023-03-08T11:53:16;99543.41;;;20.00;38.25
9059;BME280;4564;42.034;25.834;2023-03-08T11:55:53;99532.97;;;20.07;36.91
9059;BME280;4564;42.034;25.834;2023-03-08T11:58:21;99543.53;;;20.30;36.26
9059;BME280;4564;42.034;25.834;2023-03-08T12:00:50;99538.56;;;20.27;36.82
9059;BME280;4564;42.034;25.834;2023-03-08T12:03:19;99538.69;;;20.47;37.63
9059;BME280;4564;42.034;25.834;2023-03-08T12:05:47;99539.94;;;20.25;35.83
9059;BME280;4564;42.034;25.834;2023-03-08T12:08:16;99536.97;;;20.31;36.98
9059;BME280;4564;42.034;25.834;2023-03-08T12:10:45;99537.84;;;20.42;36.28
9059;BME280;4564;42.034;25.834;2023-03-08T12:13:16;99534.31;;;20.57;36.08
9059;BME280;4564;42.034;25.834;2023-03-08T12:15:46;99534.84;;;20.59;36.23
9059;BME280;4564;42.034;25.834;2023-03-08T12:18:15;99531.56;;;20.62;37.00
9059;BME280;4564;42.034;25.834;2023-03-08T12:20:43;99534.84;;;20.59;35.10
9059;BME280;4564;42.034;25.834;2023-03-08T12:23:13;99532.63;;;20.40;36.21
9059;BME280;4564;42.034;25.834;2023-03-08T12:25:44;99535.66;;;20.44;34.37
9059;BME280;4564;42.034;25.834;2023-03-08T12:28:14;99526.00;;;20.51;34.50
9059;BME280;4564;42.034;25.834;2023-03-08T12:30:50;99524.38;;;20.50;34.09
9059;BME280;4564;42.034;25.834;2023-03-08T12:33:20;99524.22;;;20.25;33.57
9059;BME280;4564;42.034;25.834;2023-03-08T12:35:52;99527.06;;;20.35;35.35
9059;BME280;4564;42.034;25.834;2023-03-08T12:38:32;99527.59;;;20.32;34.94
9059;BME280;4564;42.034;25.834;2023-03-08T12:41:00;99528.94;;;20.30;34.08
9059;BME280;4564;42.034;25.834;2023-03-08T12:43:27;99523.06;;;20.11;33.18
9059;BME280;4564;42.034;25.834;2023-03-08T12:46:01;99529.69;;;20.15;34.77
9059;BME280;4564;42.034;25.834;2023-03-08T12:48:28;99516.69;;;20.00;33.01
9059;BME280;4564;42.034;25.834;2023-03-08T12:51:01;99521.31;;;19.90;32.98
9059;BME280;4564;42.034;25.834;2023-03-08T12:53:31;99519.22;;;20.07;34.81
9059;BME280;4564;42.034;25.834;2023-03-08T12:56:02;99507.25;;;19.86;34.06
9059;BME280;4564;42.034;25.834;2023-03-08T12:58:29;99516.94;;;19.94;34.66
9059;BME280;4564;42.034;25.834;2023-03-08T13:00:58;99523.06;;;20.11;35.00
9059;BME280;4564;42.034;25.834;2023-03-08T13:03:27;99525.03;;;20.16;35.03
9059;BME280;4564;42.034;25.834;2023-03-08T13:05:55;99523.34;;;20.15;34.04
9059;BME280;4564;42.034;25.834;2023-03-08T13:08:22;99514.44;;;19.92;35.53
9059;BME280;4564;42.034;25.834;2023-03-08T13:11:04;99515.81;;;19.90;34.21
9059;BME280;4564;42.034;25.834;2023-03-08T13:13:37;99441.31;;;19.59;33.90
9059;BME280;4564;42.034;25.834;2023-03-08T13:16:06;99515.56;;;19.96;35.70
9059;BME280;4564;42.034;25.834;2023-03-08T13:18:45;99511.41;;;19.94;33.55